首页
METAR-TAF:

METAR-TAF

机场 :

Franklin Municipal-John Beverly Rose Airport

富蘭克林, 弗吉尼亚州, 美国

纬度: 36-42N, 经度: 076-54W, 海拔: 12米

当前天气观测

该预报发布于17分钟前的17:55 UTC
风速8节,风向
温度 1°C
湿度 86%
气压 1019 hPa
能見度: 16.1公里
多云层高于8000英尺
阴天层高于9000英尺

METAR: KFKN 101755Z AUTO 35008KT 10SM BKN080 OVC090 01/M01 A3009 RMK AO2 T00101014 10012 20000

时间: 13:12 (18:12 UTC)


TAF: 丢失

超过4000个机场的气象观测和天气预报(METAR&TAF报告)。

可查询的气象台以黄色和红色小点在地图上表示。

将鼠标移到小点上方,可查看气象台名称。

然后点击查看天气观测和预报。

如需切换地图:点击带黑十字的绿色按钮放大地图;点击带横线的绿色按钮缩小地图;或者点击绿色箭头查看邻近地区的地图。


METAR-TAF: